Time;durP1;ratioP1;P1;durP2;ratioP2;P2;SDS_P1;SDS_P2;PMS_P1;PMS_P2;Temp;Humidity;BMP_temperature;BMP_pressure;BME280_temperature;BME280_humidity;BME280_pressure;Samples;Min_cycle;Max_cycle;Signal;HPM_P1;HPM_P2
2022/03/01 00:02:10;;;;;;;22.90;11.27;;;;;;;-139.48;100.00;61774.03;5034381;28;20094;-72
2022/03/01 00:04:54;;;;;;;20.60;11.52;;;;;;;-139.48;100.00;61774.03;5035264;28;20067;-72
2022/03/01 00:07:38;;;;;;;19.65;10.77;;;;;;;-139.48;100.00;61774.03;5035644;28;20068;-72
2022/03/01 00:10:22;;;;;;;18.20;10.27;;;;;;;-139.48;100.00;61774.03;5034149;28;20048;-72
2022/03/01 00:13:07;;;;;;;17.30;9.23;;;;;;;-139.48;100.00;61774.03;5034286;28;20099;-73
2022/03/01 00:15:51;;;;;;;19.00;9.32;;;;;;;-139.48;100.00;61774.03;5020171;28;20059;-72
2022/03/01 00:18:35;;;;;;;;;;;;;;;-139.48;100.00;61774.03;5048567;28;20137;-72
2022/03/01 00:21:21;;;;;;;13.90;7.40;;;;;;;-139.48;100.00;61774.03;5033857;28;20419;-72
2022/03/01 00:24:05;;;;;;;15.18;8.82;;;;;;;-139.48;100.00;61774.03;5046914;28;20457;-72
2022/03/01 00:26:49;;;;;;;19.58;8.70;;;;;;;-139.48;100.00;61774.03;5035244;28;20390;-72
2022/03/01 00:29:33;;;;;;;14.18;8.88;;;;;;;-139.48;100.00;61774.03;5019801;28;20226;-72
2022/03/01 00:32:17;;;;;;;19.90;9.73;;;;;;;-139.48;100.00;61774.03;5034883;28;20060;-72
2022/03/01 00:35:01;;;;;;;21.67;9.05;;;;;;;-139.48;100.00;61774.03;5034682;28;20080;-72
2022/03/01 00:37:45;;;;;;;16.08;8.68;;;;;;;-139.48;100.00;61774.03;5034533;28;20053;-72
2022/03/01 00:40:29;;;;;;;15.52;8.63;;;;;;;-139.48;100.00;61774.03;5033369;28;20056;-72
2022/03/01 00:43:13;;;;;;;15.80;9.57;;;;;;;-139.48;100.00;61774.03;5035226;28;20087;-73
2022/03/01 00:45:57;;;;;;;16.58;8.90;;;;;;;-139.48;100.00;61774.03;5033527;28;20056;-72
2022/03/01 00:48:41;;;;;;;17.63;9.13;;;;;;;-139.48;100.00;61774.03;5033313;28;20175;-72
2022/03/01 00:51:26;;;;;;;16.13;8.70;;;;;;;-139.48;100.00;61774.03;5033217;28;20068;-73
2022/03/01 00:54:10;;;;;;;14.77;8.73;;;;;;;-139.48;100.00;61774.03;5033473;28;20099;-72
2022/03/01 00:56:53;;;;;;;20.17;9.55;;;;;;;-139.48;100.00;61774.03;5033275;28;20472;-72
2022/03/01 00:59:37;;;;;;;16.00;8.95;;;;;;;-139.48;100.00;61774.03;5034245;28;20504;-72
2022/03/01 01:02:21;;;;;;;18.20;9.13;;;;;;;-139.48;100.00;61774.03;5034679;28;20452;-72
2022/03/01 01:05:06;;;;;;;17.25;9.15;;;;;;;-139.48;100.00;61774.03;5033111;28;20180;-71
2022/03/01 01:07:51;;;;;;;20.33;9.02;;;;;;;-139.48;100.00;61774.03;5033186;28;20049;-72
2022/03/01 01:10:34;;;;;;;15.98;9.13;;;;;;;-139.48;100.00;61774.03;5032953;28;20076;-72
2022/03/01 01:13:19;;;;;;;15.73;8.60;;;;;;;-139.48;100.00;61774.03;5033080;28;20119;-72
2022/03/01 01:16:03;;;;;;;14.30;8.63;;;;;;;-139.48;100.00;61774.03;5034148;28;20048;-73
2022/03/01 01:18:47;;;;;;;17.60;9.65;;;;;;;-139.48;100.00;61774.03;5032703;28;20144;-73
2022/03/01 01:24:33;;;;;;;14.05;8.60;;;;;;;-139.48;100.00;61774.03;5032766;28;20068;-72
2022/03/01 01:27:17;;;;;;;17.63;8.52;;;;;;;-139.48;100.00;61774.03;5033782;28;20504;-70
2022/03/01 01:30:03;;;;;;;16.75;8.77;;;;;;;-139.48;100.00;61774.03;5032717;28;20084;-72
2022/03/01 01:32:48;;;;;;;20.90;8.88;;;;;;;-139.48;100.00;61774.03;5032755;28;20072;-72
2022/03/01 01:35:33;;;;;;;14.52;8.65;;;;;;;-139.48;100.00;61774.03;5032246;28;20055;-72
2022/03/01 01:38:17;;;;;;;13.80;8.25;;;;;;;-139.48;100.00;61774.03;5018619;28;20080;-71
2022/03/01 01:41:01;;;;;;;18.10;8.68;;;;;;;-139.48;100.00;61774.03;5032607;28;20068;-72
2022/03/01 01:43:45;;;;;;;16.80;7.88;;;;;;;-139.48;100.00;61774.03;5033682;28;20048;-72
2022/03/01 01:46:29;;;;;;;15.80;8.43;;;;;;;-139.48;100.00;61774.03;5033460;28;20064;-71
2022/03/01 01:49:13;;;;;;;21.55;9.00;;;;;;;-139.48;100.00;61774.03;5046217;28;20460;-70
2022/03/01 01:51:57;;;;;;;13.75;8.70;;;;;;;-139.48;100.00;61774.03;5032420;28;20416;-72
2022/03/01 01:54:41;;;;;;;16.52;8.77;;;;;;;-139.48;100.00;61774.03;5033265;28;20049;-72
2022/03/01 01:57:25;;;;;;;18.38;9.45;;;;;;;-139.48;100.00;61774.03;5033296;28;20456;-73
2022/03/01 02:00:10;;;;;;;18.02;8.80;;;;;;;-139.48;100.00;61774.03;5057431;22;20497;-72
2022/03/01 02:02:55;;;;;;;16.63;8.57;;;;;;;-139.48;100.00;61774.03;5012238;28;20056;-71
2022/03/01 02:05:39;;;;;;;17.95;8.93;;;;;;;-139.48;100.00;61774.03;5012178;28;20064;-70
2022/03/01 02:08:29;;;;;;;14.05;8.35;;;;;;;-139.48;100.00;61774.03;5013231;28;20056;-71
2022/03/01 02:11:13;;;;;;;16.40;8.05;;;;;;;-139.48;100.00;61774.03;4992514;28;20104;-72
2022/03/01 02:13:57;;;;;;;16.77;8.23;;;;;;;-139.48;100.00;61774.03;4993816;28;20073;-70
2022/03/01 02:16:41;;;;;;;15.70;8.55;;;;;;;-139.48;100.00;61774.03;4993468;28;20053;-72
2022/03/01 02:19:25;;;;;;;17.65;8.70;;;;;;;-139.48;100.00;61774.03;4993598;28;20422;-71
2022/03/01 02:22:09;;;;;;;12.38;7.57;;;;;;;-139.48;100.00;61774.03;4993898;28;20517;-71
2022/03/01 02:24:53;;;;;;;14.25;7.93;;;;;;;-139.48;100.00;61774.03;4993790;28;20355;-72
2022/03/01 02:27:37;;;;;;;16.17;8.65;;;;;;;-139.48;100.00;61774.03;4993562;28;20419;-72
2022/03/01 02:30:21;;;;;;;13.50;7.97;;;;;;;-139.48;100.00;61774.03;4993494;28;20192;-71
2022/03/01 02:33:05;;;;;;;14.95;8.18;;;;;;;-139.48;100.00;61774.03;4992341;28;20104;-71
2022/03/01 02:35:49;;;;;;;15.65;8.30;;;;;;;-139.48;100.00;61774.03;4992563;28;20134;-71
2022/03/01 02:38:33;;;;;;;14.07;7.85;;;;;;;-139.48;100.00;61774.03;4992276;28;20076;-71
2022/03/01 02:41:17;;;;;;;15.93;8.50;;;;;;;-139.48;100.00;61774.03;4993233;28;20053;-71
2022/03/01 02:44:02;;;;;;;14.27;7.97;;;;;;;-139.48;100.00;61774.03;4978674;28;20076;-71
2022/03/01 02:46:46;;;;;;;14.88;7.60;;;;;;;-139.48;100.00;61774.03;4995782;28;20561;-71
2022/03/01 02:49:30;;;;;;;15.45;7.80;;;;;;;-139.48;100.00;61774.03;4996547;28;20100;-71
2022/03/01 02:52:14;;;;;;;16.08;7.75;;;;;;;-139.48;100.00;61774.03;4996325;28;20053;-70
2022/03/01 02:54:58;;;;;;;13.77;7.72;;;;;;;-139.48;100.00;61774.03;5010235;28;20621;-71
2022/03/01 02:57:42;;;;;;;;;;;;;;;-139.48;100.00;61774.03;4997164;28;20049;-70
2022/03/01 03:00:25;;;;;;;17.33;8.00;;;;;;;-139.48;100.00;61774.03;4997006;28;19920;-71
2022/03/01 03:03:11;;;;;;;15.77;8.43;;;;;;;-139.48;100.00;61774.03;4996231;28;20326;-71
2022/03/01 03:05:55;;;;;;;16.13;7.82;;;;;;;-139.48;100.00;61774.03;4996100;28;20104;-70
2022/03/01 03:08:39;;;;;;;;;;;;;;;-139.48;100.00;61774.03;4997743;28;20096;-69
2022/03/01 03:11:23;;;;;;;19.25;8.73;;;;;;;-139.48;100.00;61774.03;5009978;28;20011;-71
2022/03/01 03:14:07;;;;;;;16.55;8.40;;;;;;;-139.48;100.00;61774.03;4997060;28;20422;-71
2022/03/01 03:16:51;;;;;;;16.67;8.45;;;;;;;-139.48;100.00;61774.03;4996976;28;20044;-71
2022/03/01 03:19:36;;;;;;;17.23;10.07;;;;;;;-139.48;100.00;61774.03;4995624;28;20053;-71
2022/03/01 03:22:20;;;;;;;15.98;8.25;;;;;;;-139.48;100.00;61774.03;4996878;28;20610;-71
2022/03/01 03:25:05;;;;;;;19.65;9.27;;;;;;;-139.48;100.00;61774.03;4995754;28;20088;-70
2022/03/01 03:27:49;;;;;;;17.85;8.55;;;;;;;-139.48;100.00;61774.03;4995756;28;20099;-71
2022/03/01 03:30:33;;;;;;;17.25;8.32;;;;;;;-139.48;100.00;61774.03;4996748;28;20241;-71
2022/03/01 03:33:16;;;;;;;18.83;8.98;;;;;;;-139.48;100.00;61774.03;4996498;28;20056;-71
2022/03/01 03:36:00;;;;;;;16.55;8.48;;;;;;;-139.48;100.00;61774.03;4995679;28;20054;-71
2022/03/01 03:38:44;;;;;;;14.45;8.60;;;;;;;-139.48;100.00;61774.03;4996345;28;20046;-71
2022/03/01 03:41:28;;;;;;;18.92;9.20;;;;;;;-139.48;100.00;61774.03;5009374;28;20112;-71
2022/03/01 03:44:12;;;;;;;23.52;10.05;;;;;;;-139.48;100.00;61774.03;4995353;28;20518;-72
2022/03/01 03:46:56;;;;;;;;;;;;;;;-139.48;100.00;61774.03;4996706;28;20068;-69
2022/03/01 03:49:40;;;;;;;12.20;6.63;;;;;;;-139.48;100.00;61774.03;4996285;28;20015;-70
2022/03/01 03:52:24;;;;;;;16.98;8.38;;;;;;;-139.48;100.00;61774.03;4996412;28;20667;-72
2022/03/01 03:55:09;;;;;;;16.90;7.55;;;;;;;-139.48;100.00;61774.03;4996073;28;20573;-70
2022/03/01 03:57:53;;;;;;;16.00;8.40;;;;;;;-139.48;100.00;61774.03;4994957;28;20053;-70
2022/03/01 04:00:37;;;;;;;17.52;8.77;;;;;;;-139.48;100.00;61774.03;4993894;28;20048;-72
2022/03/01 04:03:21;;;;;;;;;;;;;;;-139.48;100.00;61774.03;4994400;28;20049;-70
2022/03/01 04:06:04;;;;;;;22.80;9.33;;;;;;;-139.48;100.00;61774.03;4993871;28;19977;-70
2022/03/01 04:08:48;;;;;;;18.85;9.23;;;;;;;-139.48;100.00;61774.03;4994873;28;20097;-70
2022/03/01 04:11:33;;;;;;;15.65;8.50;;;;;;;-139.48;100.00;61774.03;4993807;28;20088;-71
2022/03/01 04:14:17;;;;;;;17.77;9.90;;;;;;;-139.48;100.00;61774.03;4993745;28;20049;-70
2022/03/01 04:17:01;;;;;;;19.65;9.32;;;;;;;-139.48;100.00;61774.03;5007664;28;20053;-69
2022/03/01 04:19:45;;;;;;;22.63;9.70;;;;;;;-139.48;100.00;61774.03;4994374;28;20108;-72
2022/03/01 04:22:29;;;;;;;19.58;9.43;;;;;;;-139.48;100.00;61774.03;4979853;28;20188;-69
2022/03/01 04:25:13;;;;;;;;;;;;;;;-139.48;100.00;61774.03;5008018;28;20052;-70
2022/03/01 04:27:57;;;;;;;26.50;10.27;;;;;;;-139.48;100.00;61774.03;4994611;28;19991;-71
2022/03/01 04:30:41;;;;;;;15.05;7.85;;;;;;;-139.48;100.00;61774.03;4993256;28;20061;-71
2022/03/01 04:33:25;;;;;;;18.65;9.85;;;;;;;-139.48;100.00;61774.03;4994542;28;20065;-71
2022/03/01 04:36:08;;;;;;;;;;;;;;;-139.48;100.00;61774.03;4993967;28;20045;-69
2022/03/01 04:38:52;;;;;;;18.83;9.35;;;;;;;-139.48;100.00;61774.03;4994310;28;19967;-70
2022/03/01 04:41:37;;;;;;;;;;;;;;;-139.48;100.00;61774.03;4993637;28;20053;-70
2022/03/01 04:44:20;;;;;;;20.60;9.68;;;;;;;-139.48;100.00;61774.03;4993106;28;19925;-71
2022/03/01 04:47:04;;;;;;;;;;;;;;;-139.48;100.00;61774.03;4993947;28;20049;-71
2022/03/01 04:49:48;;;;;;;19.80;8.95;;;;;;;-139.48;100.00;61774.03;4993236;28;19963;-71
2022/03/01 04:52:32;;;;;;;21.92;9.77;;;;;;;-139.48;100.00;61774.03;4993948;28;20076;-72
2022/03/01 04:55:16;;;;;;;;;;;;;;;-139.48;100.00;61774.03;4994923;28;20469;-70
2022/03/01 04:58:00;;;;;;;23.23;9.43;;;;;;;-139.48;100.00;61774.03;4993433;28;20033;-69
2022/03/01 05:00:44;;;;;;;22.23;10.07;;;;;;;-139.48;100.00;61774.03;4956450;28;1071102;-71
2022/03/01 05:03:28;;;;;;;;;;;;;;;-139.48;100.00;61774.03;4995300;28;20133;-69
2022/03/01 05:06:12;;;;;;;20.67;9.32;;;;;;;-139.48;100.00;61774.03;4994923;28;19923;-71
2022/03/01 05:08:56;;;;;;;;;;;;;;;-139.48;100.00;61774.03;4994473;28;20049;-71
2022/03/01 05:11:40;;;;;;;18.43;8.80;;;;;;;-139.48;100.00;61774.03;4994870;28;19924;-70
2022/03/01 05:14:24;;;;;;;19.55;9.73;;;;;;;-139.48;100.00;61774.03;4993597;28;20268;-71
2022/03/01 05:17:08;;;;;;;21.77;10.25;;;;;;;-139.48;100.00;61774.03;4994660;28;20123;-71
2022/03/01 05:19:52;;;;;;;19.80;9.40;;;;;;;-139.48;100.00;61774.03;4994671;28;20104;-71
2022/03/01 05:22:36;;;;;;;;;;;;;;;-139.48;100.00;61774.03;4993705;28;20049;-70
2022/03/01 05:25:23;;;;;;;18.05;9.77;;;;;;;-139.48;100.00;61774.03;4993344;28;20396;-71
2022/03/01 05:28:07;;;;;;;20.73;9.40;;;;;;;-139.48;100.00;61774.03;4994457;28;20049;-71
2022/03/01 05:30:51;;;;;;;;;;;;;;;-139.48;100.00;61774.03;4993529;28;20057;-71
2022/03/01 05:33:35;;;;;;;21.03;10.17;;;;;;;-139.48;100.00;61774.03;4994258;28;20104;-72
2022/03/01 05:36:19;;;;;;;;;;;;;;;-139.48;100.00;61774.03;4994740;28;20334;-70
2022/03/01 05:39:03;;;;;;;16.58;7.72;;;;;;;-139.48;100.00;61774.03;4994069;28;20017;-72
2022/03/01 05:41:46;;;;;;;22.10;10.07;;;;;;;-139.48;100.00;61774.03;4994252;28;20108;-71
2022/03/01 05:44:30;;;;;;;23.10;10.82;;;;;;;-139.48;100.00;61774.03;5006835;28;20433;-72
2022/03/01 05:47:14;;;;;;;24.98;10.82;;;;;;;-139.48;100.00;61774.03;4992909;28;20471;-71
2022/03/01 05:49:58;;;;;;;26.88;9.73;;;;;;;-139.48;100.00;61774.03;5006868;28;20407;-68
2022/03/01 05:52:42;;;;;;;23.20;11.05;;;;;;;-139.48;100.00;61774.03;4992993;28;20053;-71
2022/03/01 05:55:26;;;;;;;25.23;11.00;;;;;;;-139.48;100.00;61774.03;4992941;28;20536;-71
2022/03/01 05:58:10;;;;;;;24.13;11.50;;;;;;;-139.48;100.00;61774.03;4993285;28;20085;-70
2022/03/01 06:00:54;;;;;;;23.98;10.93;;;;;;;-139.48;100.00;61774.03;4992543;28;20052;-69
2022/03/01 06:03:38;;;;;;;;;;;;;;;-139.48;100.00;61774.03;4994157;28;20049;-70
2022/03/01 06:06:22;;;;;;;20.67;10.73;;;;;;;-139.48;100.00;61774.03;4992702;28;19924;-68
2022/03/01 06:09:06;;;;;;;;;;;;;;;-139.48;100.00;61774.03;4994075;28;20142;-69
2022/03/01 06:11:50;;;;;;;14.57;8.13;;;;;;;-139.48;100.00;61774.03;4993529;28;19925;-72
2022/03/01 06:14:34;;;;;;;;;;;;;;;-139.48;100.00;61774.03;4994086;28;20080;-69
2022/03/01 06:17:18;;;;;;;23.60;9.63;;;;;;;-139.48;100.00;61774.03;4993826;28;19921;-71
2022/03/01 06:20:02;;;;;;;21.25;10.25;;;;;;;-139.48;100.00;61774.03;4993332;28;20076;-71
2022/03/01 06:22:46;;;;;;;21.45;10.85;;;;;;;-139.48;100.00;61774.03;4993312;28;20465;-69
2022/03/01 06:25:30;;;;;;;20.98;10.07;;;;;;;-139.48;100.00;61774.03;4993511;28;20449;-72
2022/03/01 06:28:14;;;;;;;;;;;;;;;-139.48;100.00;61774.03;4994130;28;20054;-69
2022/03/01 06:30:58;;;;;;;22.25;11.82;;;;;;;-139.48;100.00;61774.03;4992265;28;19921;-71
2022/03/01 06:33:42;;;;;;;21.95;11.07;;;;;;;-139.48;100.00;61774.03;4993467;28;20053;-71
2022/03/01 06:36:26;;;;;;;22.90;11.30;;;;;;;-139.48;100.00;61774.03;4993750;28;20053;-71
2022/03/01 06:39:10;;;;;;;21.63;11.05;;;;;;;-139.48;100.00;61774.03;4992059;28;20049;-71
2022/03/01 06:41:54;;;;;;;;;;;;;;;-139.48;100.00;61774.03;4992782;28;20084;-68
2022/03/01 06:44:38;;;;;;;24.73;10.82;;;;;;;-139.48;100.00;61774.03;4992112;28;19960;-71
2022/03/01 06:47:22;;;;;;;;;;;;;;;-139.48;100.00;61774.03;4992573;28;20450;-71
2022/03/01 06:50:09;;;;;;;18.52;9.15;;;;;;;-139.48;100.00;61774.03;4993349;28;19936;-72
2022/03/01 06:52:53;;;;;;;24.27;11.00;;;;;;;-139.48;100.00;61774.03;4992239;28;20046;-71
2022/03/01 06:55:36;;;;;;;22.40;11.38;;;;;;;-139.48;100.00;61774.03;4992410;28;20094;-71
2022/03/01 06:58:21;;;;;;;21.20;11.32;;;;;;;-139.48;100.00;61774.03;4993321;28;20056;-72
2022/03/01 07:01:05;;;;;;;25.52;10.95;;;;;;;-139.48;100.00;61774.03;4992892;28;20057;-70
2022/03/01 07:03:49;;;;;;;;;;;;;;;-139.48;100.00;61774.03;4992634;28;20458;-68
2022/03/01 07:06:33;;;;;;;20.95;10.30;;;;;;;-139.48;100.00;61774.03;4993585;28;19924;-70
2022/03/01 07:09:18;;;;;;;23.95;11.30;;;;;;;-139.48;100.00;61774.03;4992565;28;20045;-70
2022/03/01 07:12:03;;;;;;;22.05;11.23;;;;;;;-139.48;100.00;61774.03;4992693;28;20046;-71
2022/03/01 07:14:47;;;;;;;19.15;9.70;;;;;;;-139.48;100.00;61774.03;4992664;28;20074;-71
2022/03/01 07:17:31;;;;;;;;;;;;;;;-139.48;100.00;61774.03;4993635;28;20048;-67
2022/03/01 07:20:15;;;;;;;14.23;6.75;;;;;;;-139.48;100.00;61774.03;4992283;28;19921;-72
2022/03/01 07:22:59;;;;;;;17.40;9.48;;;;;;;-139.48;100.00;61774.03;4992082;28;20053;-72
2022/03/01 07:25:43;;;;;;;19.65;9.55;;;;;;;-139.48;100.00;61774.03;4992923;28;20048;-71
2022/03/01 07:28:27;;;;;;;21.95;10.65;;;;;;;-139.48;100.00;61774.03;4992169;28;20189;-72
2022/03/01 07:31:11;;;;;;;19.60;9.68;;;;;;;-139.48;100.00;61774.03;4991956;28;20505;-71
2022/03/01 07:33:55;;;;;;;;;;;;;;;-139.48;100.00;61774.03;4997102;28;20134;-69
2022/03/01 07:36:39;;;;;;;21.73;11.18;;;;;;;-139.48;100.00;61774.03;4995699;28;19920;-70
2022/03/01 07:39:23;;;;;;;17.92;9.30;;;;;;;-139.48;100.00;61774.03;4995445;28;20121;-68
2022/03/01 07:42:07;;;;;;;15.18;8.57;;;;;;;-139.48;100.00;61774.03;4995767;28;20057;-72
2022/03/01 07:44:51;;;;;;;21.60;9.60;;;;;;;-139.48;100.00;61774.03;4996149;28;20470;-71
2022/03/01 07:47:35;;;;;;;20.60;9.75;;;;;;;-139.48;100.00;61774.03;4995272;28;20108;-71
2022/03/01 07:50:20;;;;;;;18.90;9.27;;;;;;;-139.48;100.00;61774.03;5009113;28;20130;-70
2022/03/01 07:53:04;;;;;;;18.65;10.55;;;;;;;-139.48;100.00;61774.03;4995302;28;20050;-71
2022/03/01 07:55:48;;;;;;;19.05;10.45;;;;;;;-139.48;100.00;61774.03;4996332;28;20061;-68
2022/03/01 07:58:33;;;;;;;18.10;10.52;;;;;;;-139.48;100.00;61774.03;5009059;28;20053;-70
2022/03/01 08:01:16;;;;;;;21.02;10.57;;;;;;;-139.48;100.00;61774.03;4995003;28;20510;-72
2022/03/01 08:04:00;;;;;;;20.67;10.98;;;;;;;-139.48;100.00;61774.03;4995193;28;20520;-71
2022/03/01 08:06:44;;;;;;;19.35;9.70;;;;;;;-139.48;100.00;61774.03;4994824;28;20517;-71
2022/03/01 08:09:28;;;;;;;;;;;;;;;-139.48;100.00;61774.03;4996163;28;20569;-69
2022/03/01 08:12:12;;;;;;;19.73;9.97;;;;;;;-139.48;100.00;61774.03;5044816;23;20392;-73
2022/03/01 08:14:56;;;;;;;21.65;10.25;;;;;;;-139.48;100.00;61774.03;5034360;28;20144;-72
2022/03/01 08:17:49;;;;;;;;;;;;;;;-139.48;100.00;61774.03;5034398;28;20052;-73
2022/03/01 08:20:33;;;;;;;22.23;10.25;;;;;;;-139.48;100.00;61774.03;5035185;28;19928;-73
2022/03/01 08:23:17;;;;;;;;;;;;;;;-139.48;100.00;61774.03;5034210;28;20096;-73
2022/03/01 08:26:04;;;;;;;23.37;9.70;;;;;;;-139.48;100.00;61774.03;5034036;28;20133;-72
2022/03/01 08:28:48;;;;;;;22.75;10.27;;;;;;;-139.48;100.00;61774.03;5033875;28;20048;-73
2022/03/01 08:31:31;;;;;;;24.98;11.80;;;;;;;-139.48;100.00;61774.03;5019856;28;20095;-73
2022/03/01 08:34:15;;;;;;;18.80;10.15;;;;;;;-139.48;100.00;61774.03;5034942;28;20477;-73
2022/03/01 08:36:59;;;;;;;19.13;9.23;;;;;;;-139.48;100.00;61774.03;5034144;28;20068;-72
2022/03/01 08:39:43;;;;;;;21.33;10.77;;;;;;;-139.48;100.00;61774.03;5034874;28;20064;-73
2022/03/01 08:42:27;;;;;;;;;;;;;;;-139.48;100.00;61774.03;5034197;28;20118;-73
2022/03/01 08:45:12;;;;;;;18.45;9.60;;;;;;;-139.48;100.00;61774.03;5033061;28;19970;-70
2022/03/01 08:47:56;;;;;;;19.25;9.85;;;;;;;-139.48;100.00;61774.03;5019714;28;20048;-70
2022/03/01 08:50:40;;;;;;;19.42;10.43;;;;;;;-139.48;100.00;61774.03;5033396;28;20110;-70
2022/03/01 08:53:24;;;;;;;;;;;;;;;-139.48;100.00;61774.03;5033810;28;20049;-69
2022/03/01 08:56:09;;;;;;;16.20;9.65;;;;;;;-139.48;100.00;61774.03;5019048;28;20088;-70
2022/03/01 08:58:55;;;;;;;18.85;10.55;;;;;;;-139.48;100.00;61774.03;5033259;28;20107;-71
2022/03/01 09:01:39;;;;;;;20.58;10.00;;;;;;;-139.48;100.00;61774.03;5033023;28;20128;-70
2022/03/01 09:04:23;;;;;;;;;;;;;;;-139.48;100.00;61774.03;5034473;28;20227;-71
2022/03/01 09:07:07;;;;;;;18.63;9.03;;;;;;;-139.48;100.00;61774.03;5032948;28;19932;-70
2022/03/01 09:09:51;;;;;;;19.05;9.90;;;;;;;-139.48;100.00;61774.03;5033450;28;20037;-71
2022/03/01 09:12:35;;;;;;;18.60;10.25;;;;;;;-139.48;100.00;61774.03;5032797;28;20180;-71
2022/03/01 09:15:20;;;;;;;18.33;10.02;;;;;;;-139.48;100.00;61774.03;5033947;28;20052;-71
2022/03/01 09:18:05;;;;;;;18.55;9.70;;;;;;;-139.48;100.00;61774.03;5032733;28;20099;-71
2022/03/01 09:20:50;;;;;;;15.75;9.15;;;;;;;-139.48;100.00;61774.03;5033295;28;20084;-70
2022/03/01 09:23:34;;;;;;;23.13;9.48;;;;;;;-139.48;100.00;61774.03;5033700;28;20575;-71
2022/03/01 09:26:18;;;;;;;17.30;9.25;;;;;;;-139.48;100.00;61774.03;5032846;28;20155;-71
2022/03/01 09:29:02;;;;;;;14.15;8.65;;;;;;;-139.48;100.00;61774.03;5033661;28;20055;-70
2022/03/01 09:31:46;;;;;;;18.88;9.85;;;;;;;-139.48;100.00;61774.03;5032650;28;20087;-70
2022/03/01 09:34:30;;;;;;;14.35;8.98;;;;;;;-139.48;100.00;61774.03;5032819;28;20056;-71
2022/03/01 09:37:15;;;;;;;15.85;8.60;;;;;;;-139.48;100.00;61774.03;5033709;28;20064;-71
2022/03/01 09:39:59;;;;;;;14.85;8.90;;;;;;;-139.48;100.00;61774.03;5033674;28;20087;-71
2022/03/01 09:42:44;;;;;;;13.73;8.82;;;;;;;-139.48;100.00;61774.03;5032521;28;20124;-71
2022/03/01 09:45:27;;;;;;;;;;;;;;;-139.48;100.00;61774.03;5032916;28;20076;-71
2022/03/01 09:48:11;;;;;;;15.73;9.27;;;;;;;-139.48;100.00;61774.03;5032584;28;19944;-71
2022/03/01 09:50:57;;;;;;;12.93;9.57;;;;;;;-139.48;100.00;61774.03;5032409;28;20409;-72
2022/03/01 09:53:42;;;;;;;15.27;10.10;;;;;;;-139.48;100.00;61774.03;5032128;28;20536;-71
2022/03/01 09:56:26;;;;;;;17.38;10.10;;;;;;;-139.48;100.00;61774.03;5031592;28;20097;-71
2022/03/01 09:59:09;;;;;;;14.60;10.25;;;;;;;-139.48;100.00;61774.03;5033156;28;20504;-71
2022/03/01 10:01:54;;;;;;;17.83;10.73;;;;;;;-139.48;100.00;61774.03;5018213;28;20136;-72
2022/03/01 10:04:49;;;;;;;16.40;10.48;;;;;;;-139.48;100.00;61774.03;5031895;28;20125;-71
2022/03/01 10:07:33;;;;;;;20.08;10.32;;;;;;;-139.48;100.00;61774.03;5031993;28;20087;-71
2022/03/01 10:10:17;;;;;;;18.10;10.63;;;;;;;-139.48;100.00;61774.03;5032039;28;20465;-72
2022/03/01 10:13:02;;;;;;;15.90;10.23;;;;;;;-139.48;100.00;61774.03;5031689;28;20520;-72
2022/03/01 10:15:45;;;;;;;;;;;;;;;-139.48;100.00;61774.03;5033185;28;20136;-72
2022/03/01 10:18:32;;;;;;;18.23;10.75;;;;;;;-139.48;100.00;61774.03;5018140;28;19924;-71
2022/03/01 10:21:16;;;;;;;15.23;10.88;;;;;;;-139.48;100.00;61774.03;5031609;28;20103;-72
2022/03/01 10:24:00;;;;;;;16.48;10.18;;;;;;;-139.48;100.00;61774.03;5017685;28;20063;-71
2022/03/01 10:26:44;;;;;;;;;;;;;;;-139.48;100.00;61774.03;5032085;28;20068;-72
2022/03/01 10:29:29;;;;;;;14.90;9.87;;;;;;;-139.48;100.00;61774.03;5031851;28;20375;-72
2022/03/01 10:32:13;;;;;;;13.27;9.77;;;;;;;-139.48;100.00;61774.03;5031776;28;20346;-72
2022/03/01 10:35:01;;;;;;;;;;;;;;;-139.48;100.00;61774.03;5032245;28;20536;-72
2022/03/01 10:37:49;;;;;;;13.73;9.15;;;;;;;-139.48;100.00;61774.03;5031477;28;19920;-72
2022/03/01 10:40:34;;;;;;;13.85;9.55;;;;;;;-139.48;100.00;61774.03;5031760;28;20044;-72
2022/03/01 10:43:18;;;;;;;15.00;9.75;;;;;;;-139.48;100.00;61774.03;5032597;28;20125;-70
2022/03/01 10:46:06;;;;;;;31.38;27.52;;;;;;;-139.48;100.00;61774.03;5031719;28;20523;-71
2022/03/01 10:49:05;;;;;;;32.22;23.38;;;;;;;-139.48;100.00;61774.03;5032586;28;20056;-71
2022/03/01 10:51:51;;;;;;;39.47;30.67;;;;;;;-139.48;100.00;61774.03;5031528;28;20151;-71
2022/03/01 10:54:36;;;;;;;25.02;17.75;;;;;;;-139.48;100.00;61774.03;5031514;28;20052;-71
2022/03/01 10:57:22;;;;;;;29.27;23.08;;;;;;;-139.48;100.00;61774.03;5031616;28;20495;-71
2022/03/01 11:00:08;;;;;;;35.00;25.90;;;;;;;-139.48;100.00;61774.03;5031323;28;20507;-72
2022/03/01 11:02:52;;;;;;;27.83;19.15;;;;;;;-139.48;100.00;61774.03;5032192;28;20128;-71
2022/03/01 11:05:36;;;;;;;16.88;10.18;;;;;;;-139.48;100.00;61774.03;5031227;28;20492;-71
2022/03/01 11:08:22;;;;;;;36.20;28.08;;;;;;;-139.48;100.00;61774.03;5034439;28;20129;-71
2022/03/01 11:11:09;;;;;;;28.05;20.30;;;;;;;-139.48;100.00;61774.03;5035592;28;20221;-72
2022/03/01 11:13:53;;;;;;;16.77;11.80;;;;;;;-139.48;100.00;61774.03;5036254;28;20472;-72
2022/03/01 11:16:55;;;;;;;48.40;36.25;;;;;;;-139.48;100.00;61774.03;5035508;28;20076;-72
2022/03/01 11:19:58;;;;;;;14.00;9.35;;;;;;;-139.48;100.00;61774.03;5036308;28;20064;-72
2022/03/01 11:23:03;;;;;;;36.38;26.67;;;;;;;-139.48;100.00;61774.03;5034868;28;20476;-72
2022/03/01 11:25:47;;;;;;;17.23;10.98;;;;;;;-139.48;100.00;61774.03;5035239;28;20052;-72
2022/03/01 11:28:40;;;;;;;14.02;9.50;;;;;;;-139.48;100.00;61774.03;5034960;28;20056;-72
2022/03/01 11:31:26;;;;;;;12.73;9.60;;;;;;;-139.48;100.00;61774.03;5022077;28;20048;-72
2022/03/01 11:34:15;;;;;;;18.90;13.40;;;;;;;-139.48;100.00;61774.03;5036150;28;20091;-72
2022/03/01 11:36:59;;;;;;;16.80;10.35;;;;;;;-139.48;100.00;61774.03;5034811;28;20087;-72
2022/03/01 11:39:50;;;;;;;19.15;12.77;;;;;;;-139.48;100.00;61774.03;5034749;28;20083;-72
2022/03/01 11:42:34;;;;;;;15.20;10.07;;;;;;;-139.48;100.00;61774.03;5034841;28;20142;-72
2022/03/01 11:45:18;;;;;;;12.80;8.68;;;;;;;-139.48;100.00;61774.03;5020767;28;20044;-72
2022/03/01 11:48:04;;;;;;;15.57;9.93;;;;;;;-139.48;100.00;61774.03;5020591;28;20574;-72
2022/03/01 11:50:57;;;;;;;13.88;9.90;;;;;;;-139.48;100.00;61774.03;5035789;28;20047;-72
2022/03/01 11:53:42;;;;;;;52.10;35.63;;;;;;;-139.48;100.00;61774.03;5034453;28;20076;-72
2022/03/01 11:56:26;;;;;;;19.25;13.05;;;;;;;-139.48;100.00;61774.03;5020843;28;20094;-72
2022/03/01 11:59:12;;;;;;;13.00;10.10;;;;;;;-139.48;100.00;61774.03;5034386;28;20055;-72
2022/03/01 12:01:56;;;;;;;16.95;13.00;;;;;;;-139.48;100.00;61774.03;5034454;28;20091;-72
2022/03/01 12:04:46;;;;;;;23.98;17.27;;;;;;;-139.48;100.00;61774.03;5035541;28;20111;-72
2022/03/01 12:07:31;;;;;;;23.20;16.00;;;;;;;-139.48;100.00;61774.03;5035498;28;20078;-72
2022/03/01 12:10:24;;;;;;;13.95;10.00;;;;;;;-139.48;100.00;61774.03;5035118;28;20103;-72
2022/03/01 12:13:08;;;;;;;30.50;21.83;;;;;;;-139.48;100.00;61774.03;5035083;28;20045;-73
2022/03/01 12:15:56;;;;;;;16.70;11.40;;;;;;;-139.48;100.00;61774.03;5034159;28;20079;-72
2022/03/01 12:18:43;;;;;;;16.45;11.18;;;;;;;-139.48;100.00;61774.03;5035116;28;20051;-72
2022/03/01 12:21:26;;;;;;;33.72;23.25;;;;;;;-139.48;100.00;61774.03;5034162;28;20146;-72
2022/03/01 12:24:11;;;;;;;32.90;21.95;;;;;;;-139.48;100.00;61774.03;5034893;28;20072;-72
2022/03/01 12:26:57;;;;;;;32.35;20.10;;;;;;;-139.48;100.00;61774.03;5034911;28;20095;-72
2022/03/01 12:29:46;;;;;;;15.23;10.50;;;;;;;-139.48;100.00;61774.03;5033724;28;20060;-71